*** The Vicarage Weather Feed ***

Nearby METAR Reports


 

CYOO - Oshawa, Municipal Airport, Ontario, Canada
Distance from station: PnZd 3.2km
Aktualizacja: 14/07/2020 22:00
Bezchmurnie
Bezchmurnie
 Wiatr z PnPnZd
Wiatr: PnPnZd 7 km/h
Temperatura: 22°C
Punkt Rosy: 14°C
Wilgotność: 61%
Ciśnienie: 1018.6 hPa
Clouds: Bezchmurnie
Visibility: 14 km
2020/07/15 02:00 CYOO 150200Z AUTO 33004KT 280V350 9SM CLR 22/14 A3008 RMK SLP187 DENSITY ALT 1200FT
CYKZ - Toronto, Buttonville, Municipal Airport, Ontario, Canada
Distance from station: Zd 39.75km
Aktualizacja: 03/01/2019 04:00
NOT Current
Częściowe zachmurzenie
Częściowe zachmurzenie
 Wiatr z ZdPdZa
Wiatr: ZdPdZa 7 km/h
Temperatura: -3°C
Wind Chill: -6°C
Punkt Rosy: -5°C
Wilgotność: 86%
Ciśnienie: 1010.8 hPa
Clouds: Częściowe zachmurzenie
Visibility: 24 km
Cloud details: Częściowe zachmurzenie 1219 m
2019/01/03 09:00 CYKZ 030900Z 25004KT 15SM SCT040 M03/M05 A2985 RMK SC3 LAST STFD OBS FAREWELL SLP118
 
CXTO - Toronto City, Buttonville, Ontario, Canada
Distance from station: ZdPdZa 49km
Aktualizacja: 14/07/2020 22:00

 
Temperatura: 23°C
Punkt Rosy: 12°C
Wilgotność: 50%
2020/07/15 02:00 CXTO 150200Z AUTO 23/12 RMK AO1 SLP190 T02270123 53003
CYTZ - Toronto City, Island Airport, Ontario, Canada
Distance from station: PdZd 51.7km
Aktualizacja: 14/07/2020 22:00
Bezchmurnie
Bezchmurnie
 Wiatr z calm
Wiatr: Cisza
Temperatura: 22°C
Punkt Rosy: 18°C
Wilgotność: 78%
Ciśnienie: 1018.3 hPa
Clouds: Bezchmurnie
Visibility: 14 km
2020/07/15 02:00 CYTZ 150200Z AUTO 00000KT 9SM CLR 22/18 A3007 RMK SLP183 DENSITY ALT 900FT
 
CYPQ - Toronto, Peterborough Airport, Ontario, Canada
Distance from station: PnWs 54km
Aktualizacja: 14/07/2020 22:00

 Wiatr z varies
Wiatr: varies 4 km/h
Temperatura: 19°C
Punkt Rosy: 18°C
Wilgotność: 94%
Ciśnienie: 1018.6 hPa
Visibility: 14 km
2020/07/15 02:00 CYPQ 150200Z AUTO VRB02KT 9SM 19/18 A3008 RMK CLD MISG SLP187 DENSITY ALT 1000FT
CWNC - Cobourg, (mars), Ontario, Canada
Distance from station: Ws 57km
Aktualizacja: 14/07/2020 22:00

 Wiatr z PnPnZd
Wiatr: PnPnZd 6 km/h
Temperatura: 22°C
Punkt Rosy: 16°C
Wilgotność: 69%
2020/07/15 02:00 CWNC 150200Z AUTO 34003KT 22/16 RMK AO1 SLP184 T02180162 53004
 
CYYZ - Toronto, Lester Pearson Airport, Ontario, Canada
Distance from station: Zd 65.5km
Aktualizacja: 14/07/2020 22:00
Przeważnie pochmurno
Przeważnie pochmurno
 Wiatr z Pd
Wiatr: Pd 6 km/h
Temperatura: 23°C
Punkt Rosy: 13°C
Wilgotność: 53%
Ciśnienie: 1018.6 hPa
Clouds: Przeważnie pochmurno
Visibility: 24 km
Cloud details: Few Clouds 5486 m
Przeważnie pochmurno 7620 m
2020/07/15 02:00 CYYZ 150200Z 18003KT 15SM FEW180 BKN250 23/13 A3008 RMK AC2CS5 SLP187 DENSITY ALT 1500FT
CWGL - Lagoon City, Ontario, Canada
Distance from station: PnPnZd 74km
Aktualizacja: 14/07/2020 22:00

 Wiatr z PnWs
Wiatr: PnWs 4 km/h
Temperatura: 22°C
Punkt Rosy: 17°C
Wilgotność: 73%
2020/07/15 02:00 CWGL 150200Z AUTO 04002KT 22/17 RMK AO1 SLP174 T02200173 51007
 
CWWZ - Port Weller Airport, Ontario, Canada
Distance from station: PdPdZd 77km
Aktualizacja: 14/07/2020 22:00

 Wiatr z PdZd
Wiatr: PdZd 7 km/h
Temperatura: 23°C
Punkt Rosy: 18°C
Wilgotność: 74%
2020/07/15 02:00 CWWZ 150200Z AUTO 22004KT 23/18 RMK AO1 SLP187 T02320180 53005
CYSN - St.Catharines Niagara Airport, Ontario, Canada
Distance from station: PdPdZd 81km
Aktualizacja: 14/07/2020 21:00
NOT Current
Przeważnie pochmurno
Przeważnie pochmurno
 Wiatr z PdPdZd
Wiatr: PdPdZd 11 km/h
Temperatura: 23°C
Punkt Rosy: 16°C
Wilgotność: 65%
Ciśnienie: 1018.3 hPa
Clouds: Przeważnie pochmurno
Visibility: 24 km
Cloud details: Częściowe zachmurzenie 5486 m
Przeważnie pochmurno 7620 m
2020/07/15 01:00 CYSN 150100Z 21006KT 180V280 15SM SCT180 BKN250 23/16 A3007 RMK CI3CI2 LAST STFD OBS/NEXT 151100Z SLP182 DENSITY ALT 1200FT
This data is offered only as a general guide to local weather conditions. It should not be relied upon in lieu of officially disseminated weather information for determining possible risk to persons or property. This site, including all information contained therein, is made available as is without warranties of any kind, either express or implied. The Vicarage Weather Feed© includes links to other sites for user convenience only. The content of any linked third-party site is not controlled by The Vicarage Weather Feed©. Access to any third-party website through The Vicarage Weather Feed©, regardless of whether or not the third-party site is a linked site, is entirely at the users own risk. Externally sourced content or material is excluded from The Vicarage Weather Feed© copyright and is the copyright and property of the respective provider. Skywarn® and the Skywarn® logo are registered trademarks of the National Oceanic and Atmospheric Administration, used with permission.